sensor_id;sensor_type;location;lat;lon;timestamp;temperature;humidity
65378;SHT31;51982;51.042;13.806;2023-07-20T00:01:04;21.26;79.56
65378;SHT31;51982;51.042;13.806;2023-07-20T00:03:29;21.38;79.57
65378;SHT31;51982;51.042;13.806;2023-07-20T00:05:54;21.41;79.80
65378;SHT31;51982;51.042;13.806;2023-07-20T00:08:20;21.45;79.77
65378;SHT31;51982;51.042;13.806;2023-07-20T00:10:45;21.44;79.87
65378;SHT31;51982;51.042;13.806;2023-07-20T00:13:11;21.48;79.94
65378;SHT31;51982;51.042;13.806;2023-07-20T00:15:36;21.45;79.81
65378;SHT31;51982;51.042;13.806;2023-07-20T00:18:03;21.38;79.90
65378;SHT31;51982;51.042;13.806;2023-07-20T00:20:28;21.44;80.11
65378;SHT31;51982;51.042;13.806;2023-07-20T00:22:53;21.40;80.34
65378;SHT31;51982;51.042;13.806;2023-07-20T00:25:20;21.37;80.15
65378;SHT31;51982;51.042;13.806;2023-07-20T00:27:45;21.30;80.16
65378;SHT31;51982;51.042;13.806;2023-07-20T00:30:10;21.23;80.28
65378;SHT31;51982;51.042;13.806;2023-07-20T00:32:36;21.23;80.41
65378;SHT31;51982;51.042;13.806;2023-07-20T00:35:01;21.24;80.45
65378;SHT31;51982;51.042;13.806;2023-07-20T00:37:26;21.31;80.61
65378;SHT31;51982;51.042;13.806;2023-07-20T00:39:52;21.33;80.49
65378;SHT31;51982;51.042;13.806;2023-07-20T00:42:18;21.31;80.27
65378;SHT31;51982;51.042;13.806;2023-07-20T00:44:43;21.30;80.35
65378;SHT31;51982;51.042;13.806;2023-07-20T00:47:08;21.34;80.56
65378;SHT31;51982;51.042;13.806;2023-07-20T00:49:34;21.33;80.34
65378;SHT31;51982;51.042;13.806;2023-07-20T00:52:00;21.30;80.23
65378;SHT31;51982;51.042;13.806;2023-07-20T00:54:27;21.30;80.43
65378;SHT31;51982;51.042;13.806;2023-07-20T00:56:53;21.26;80.47
65378;SHT31;51982;51.042;13.806;2023-07-20T00:59:18;21.24;80.49
65378;SHT31;51982;51.042;13.806;2023-07-20T01:01:43;21.26;80.46
65378;SHT31;51982;51.042;13.806;2023-07-20T01:04:09;21.26;80.44
65378;SHT31;51982;51.042;13.806;2023-07-20T01:06:58;21.14;80.23
65378;SHT31;51982;51.042;13.806;2023-07-20T01:14:31;21.07;80.56
65378;SHT31;51982;51.042;13.806;2023-07-20T01:16:57;21.13;80.36
65378;SHT31;51982;51.042;13.806;2023-07-20T01:19:22;21.13;80.25
65378;SHT31;51982;51.042;13.806;2023-07-20T01:22:00;21.11;80.06
65378;SHT31;51982;51.042;13.806;2023-07-20T01:25:03;21.13;80.05
65378;SHT31;51982;51.042;13.806;2023-07-20T01:33:07;21.14;80.22
65378;SHT31;51982;51.042;13.806;2023-07-20T01:35:33;21.08;80.12
65378;SHT31;51982;51.042;13.806;2023-07-20T01:38:00;21.20;80.06
65378;SHT31;51982;51.042;13.806;2023-07-20T01:40:25;21.21;79.96
65378;SHT31;51982;51.042;13.806;2023-07-20T01:42:52;21.19;80.03
65378;SHT31;51982;51.042;13.806;2023-07-20T01:45:17;21.14;79.78
65378;SHT31;51982;51.042;13.806;2023-07-20T01:47:43;21.08;79.63
65378;SHT31;51982;51.042;13.806;2023-07-20T01:50:09;21.10;79.65
65378;SHT31;51982;51.042;13.806;2023-07-20T01:52:34;21.07;79.82
65378;SHT31;51982;51.042;13.806;2023-07-20T01:54:59;21.01;79.81
65378;SHT31;51982;51.042;13.806;2023-07-20T01:57:24;21.03;79.74
65378;SHT31;51982;51.042;13.806;2023-07-20T01:59:50;21.00;79.67
65378;SHT31;51982;51.042;13.806;2023-07-20T02:02:15;21.01;79.70
65378;SHT31;51982;51.042;13.806;2023-07-20T02:04:40;20.99;79.72
65378;SHT31;51982;51.042;13.806;2023-07-20T02:07:06;20.96;79.86
65378;SHT31;51982;51.042;13.806;2023-07-20T02:09:31;20.92;79.86
65378;SHT31;51982;51.042;13.806;2023-07-20T02:11:56;20.89;79.78
65378;SHT31;51982;51.042;13.806;2023-07-20T02:14:22;20.92;79.87
65378;SHT31;51982;51.042;13.806;2023-07-20T02:16:50;20.89;79.91
65378;SHT31;51982;51.042;13.806;2023-07-20T02:19:18;20.90;79.96
65378;SHT31;51982;51.042;13.806;2023-07-20T02:21:43;20.89;79.98
65378;SHT31;51982;51.042;13.806;2023-07-20T02:24:08;20.86;79.89
65378;SHT31;51982;51.042;13.806;2023-07-20T02:26:34;20.86;80.08
65378;SHT31;51982;51.042;13.806;2023-07-20T02:28:59;20.86;80.16
65378;SHT31;51982;51.042;13.806;2023-07-20T02:31:24;20.84;80.07
65378;SHT31;51982;51.042;13.806;2023-07-20T02:33:49;20.77;79.98
65378;SHT31;51982;51.042;13.806;2023-07-20T02:36:14;20.76;80.00
65378;SHT31;51982;51.042;13.806;2023-07-20T02:38:41;20.73;79.89
65378;SHT31;51982;51.042;13.806;2023-07-20T02:41:07;20.70;79.89
65378;SHT31;51982;51.042;13.806;2023-07-20T02:43:32;20.65;80.00
65378;SHT31;51982;51.042;13.806;2023-07-20T02:45:57;20.66;80.02
65378;SHT31;51982;51.042;13.806;2023-07-20T02:48:22;20.63;80.07
65378;SHT31;51982;51.042;13.806;2023-07-20T02:50:48;20.63;80.09
65378;SHT31;51982;51.042;13.806;2023-07-20T02:53:13;20.63;80.13
65378;SHT31;51982;51.042;13.806;2023-07-20T02:55:38;20.60;80.38
65378;SHT31;51982;51.042;13.806;2023-07-20T02:58:04;20.62;80.36
65378;SHT31;51982;51.042;13.806;2023-07-20T03:00:29;20.60;80.21
65378;SHT31;51982;51.042;13.806;2023-07-20T03:02:54;20.60;80.38
65378;SHT31;51982;51.042;13.806;2023-07-20T03:05:21;20.56;80.30
65378;SHT31;51982;51.042;13.806;2023-07-20T03:07:47;20.48;80.28
65378;SHT31;51982;51.042;13.806;2023-07-20T03:10:12;20.50;80.39
65378;SHT31;51982;51.042;13.806;2023-07-20T03:12:38;20.55;80.45
65378;SHT31;51982;51.042;13.806;2023-07-20T03:15:03;20.53;80.28
65378;SHT31;51982;51.042;13.806;2023-07-20T03:17:28;20.57;80.45
65378;SHT31;51982;51.042;13.806;2023-07-20T03:19:54;20.52;80.34
65378;SHT31;51982;51.042;13.806;2023-07-20T03:22:19;20.50;80.33
65378;SHT31;51982;51.042;13.806;2023-07-20T03:24:46;20.48;80.47
65378;SHT31;51982;51.042;13.806;2023-07-20T03:27:11;20.45;80.46
65378;SHT31;51982;51.042;13.806;2023-07-20T03:29:37;20.42;80.48
65378;SHT31;51982;51.042;13.806;2023-07-20T03:32:02;20.38;80.50
65378;SHT31;51982;51.042;13.806;2023-07-20T03:34:27;20.39;80.52
65378;SHT31;51982;51.042;13.806;2023-07-20T03:36:53;20.39;80.45
65378;SHT31;51982;51.042;13.806;2023-07-20T03:39:18;20.38;80.49
65378;SHT31;51982;51.042;13.806;2023-07-20T03:41:43;20.38;80.41
65378;SHT31;51982;51.042;13.806;2023-07-20T03:44:08;20.33;80.38
65378;SHT31;51982;51.042;13.806;2023-07-20T03:46:34;20.29;80.49
65378;SHT31;51982;51.042;13.806;2023-07-20T03:48:59;20.26;80.46
65378;SHT31;51982;51.042;13.806;2023-07-20T03:51:26;20.26;80.43
65378;SHT31;51982;51.042;13.806;2023-07-20T03:53:51;20.26;80.43
65378;SHT31;51982;51.042;13.806;2023-07-20T03:56:16;20.22;80.42
65378;SHT31;51982;51.042;13.806;2023-07-20T03:58:41;20.29;80.38
65378;SHT31;51982;51.042;13.806;2023-07-20T04:01:07;20.32;80.54
65378;SHT31;51982;51.042;13.806;2023-07-20T04:03:33;20.32;80.45
65378;SHT31;51982;51.042;13.806;2023-07-20T04:05:58;20.33;80.48
65378;SHT31;51982;51.042;13.806;2023-07-20T04:08:24;20.39;80.59
65378;SHT31;51982;51.042;13.806;2023-07-20T04:10:50;20.39;80.62
65378;SHT31;51982;51.042;13.806;2023-07-20T04:13:15;20.38;80.59
65378;SHT31;51982;51.042;13.806;2023-07-20T04:15:42;20.40;80.62
65378;SHT31;51982;51.042;13.806;2023-07-20T04:18:07;20.38;80.63
65378;SHT31;51982;51.042;13.806;2023-07-20T04:20:32;20.43;80.56
65378;SHT31;51982;51.042;13.806;2023-07-20T04:22:57;20.40;80.45
65378;SHT31;51982;51.042;13.806;2023-07-20T04:25:22;20.39;80.44
65378;SHT31;51982;51.042;13.806;2023-07-20T04:27:48;20.39;80.49
65378;SHT31;51982;51.042;13.806;2023-07-20T04:30:13;20.42;80.42
65378;SHT31;51982;51.042;13.806;2023-07-20T04:32:40;20.48;80.40
65378;SHT31;51982;51.042;13.806;2023-07-20T04:35:09;20.52;80.23
65378;SHT31;51982;51.042;13.806;2023-07-20T04:37:34;20.52;80.11
65378;SHT31;51982;51.042;13.806;2023-07-20T04:39:59;20.56;80.11
65378;SHT31;51982;51.042;13.806;2023-07-20T04:42:25;20.57;80.18
65378;SHT31;51982;51.042;13.806;2023-07-20T04:44:50;20.60;80.07
65378;SHT31;51982;51.042;13.806;2023-07-20T04:47:15;20.66;80.00
65378;SHT31;51982;51.042;13.806;2023-07-20T04:49:40;20.65;80.18
65378;SHT31;51982;51.042;13.806;2023-07-20T04:52:07;20.57;80.14
65378;SHT31;51982;51.042;13.806;2023-07-20T04:54:32;20.56;80.27
65378;SHT31;51982;51.042;13.806;2023-07-20T04:56:58;20.65;80.13
65378;SHT31;51982;51.042;13.806;2023-07-20T04:59:23;20.66;80.19
65378;SHT31;51982;51.042;13.806;2023-07-20T05:01:48;20.69;79.96
65378;SHT31;51982;51.042;13.806;2023-07-20T05:04:13;20.68;80.03
65378;SHT31;51982;51.042;13.806;2023-07-20T05:06:39;20.65;80.03
65378;SHT31;51982;51.042;13.806;2023-07-20T05:09:04;20.70;80.08
65378;SHT31;51982;51.042;13.806;2023-07-20T05:11:32;20.70;79.92
65378;SHT31;51982;51.042;13.806;2023-07-20T05:13:58;20.69;80.04
65378;SHT31;51982;51.042;13.806;2023-07-20T05:16:23;20.72;80.29
65378;SHT31;51982;51.042;13.806;2023-07-20T05:18:48;20.72;79.98
65378;SHT31;51982;51.042;13.806;2023-07-20T05:21:13;20.79;79.96
65378;SHT31;51982;51.042;13.806;2023-07-20T05:23:39;20.82;80.23
65378;SHT31;51982;51.042;13.806;2023-07-20T05:26:04;20.76;79.93
65378;SHT31;51982;51.042;13.806;2023-07-20T05:28:32;20.73;79.79
65378;SHT31;51982;51.042;13.806;2023-07-20T05:30:57;20.79;79.88
65378;SHT31;51982;51.042;13.806;2023-07-20T05:33:24;20.90;79.91
65378;SHT31;51982;51.042;13.806;2023-07-20T05:35:49;20.94;79.71
65378;SHT31;51982;51.042;13.806;2023-07-20T05:38:15;20.96;79.65
65378;SHT31;51982;51.042;13.806;2023-07-20T05:40:41;20.97;79.62
65378;SHT31;51982;51.042;13.806;2023-07-20T05:43:09;20.97;79.61
65378;SHT31;51982;51.042;13.806;2023-07-20T05:45:35;21.00;79.59
65378;SHT31;51982;51.042;13.806;2023-07-20T05:48:00;20.92;79.63
65378;SHT31;51982;51.042;13.806;2023-07-20T05:50:26;21.03;79.65
65378;SHT31;51982;51.042;13.806;2023-07-20T05:52:54;21.07;79.44
65378;SHT31;51982;51.042;13.806;2023-07-20T05:55:20;21.21;79.44
65378;SHT31;51982;51.042;13.806;2023-07-20T05:57:45;21.13;79.28
65378;SHT31;51982;51.042;13.806;2023-07-20T06:00:12;21.20;79.31
65378;SHT31;51982;51.042;13.806;2023-07-20T06:02:38;21.06;79.22
65378;SHT31;51982;51.042;13.806;2023-07-20T06:05:04;21.03;79.11
65378;SHT31;51982;51.042;13.806;2023-07-20T06:07:29;21.04;79.09
65378;SHT31;51982;51.042;13.806;2023-07-20T06:09:56;21.03;78.90
65378;SHT31;51982;51.042;13.806;2023-07-20T06:12:21;21.01;79.25
65378;SHT31;51982;51.042;13.806;2023-07-20T06:14:46;21.15;79.22
65378;SHT31;51982;51.042;13.806;2023-07-20T06:17:12;21.21;79.08
65378;SHT31;51982;51.042;13.806;2023-07-20T06:19:37;21.15;79.03
65378;SHT31;51982;51.042;13.806;2023-07-20T06:22:02;21.33;79.02
65378;SHT31;51982;51.042;13.806;2023-07-20T06:24:28;21.34;78.70
65378;SHT31;51982;51.042;13.806;2023-07-20T06:26:53;21.27;78.84
65378;SHT31;51982;51.042;13.806;2023-07-20T06:29:18;21.14;79.95
65378;SHT31;51982;51.042;13.806;2023-07-20T06:31:44;21.19;80.53
65378;SHT31;51982;51.042;13.806;2023-07-20T06:34:09;21.23;80.69
65378;SHT31;51982;51.042;13.806;2023-07-20T06:36:34;21.15;81.23
65378;SHT31;51982;51.042;13.806;2023-07-20T06:39:00;21.07;81.07
65378;SHT31;51982;51.042;13.806;2023-07-20T06:41:25;21.04;81.21
65378;SHT31;51982;51.042;13.806;2023-07-20T06:43:50;21.06;81.44
65378;SHT31;51982;51.042;13.806;2023-07-20T06:46:17;20.99;81.68
65378;SHT31;51982;51.042;13.806;2023-07-20T06:48:42;20.97;81.53
65378;SHT31;51982;51.042;13.806;2023-07-20T06:51:08;21.04;81.58
65378;SHT31;51982;51.042;13.806;2023-07-20T06:53:34;21.01;81.63
65378;SHT31;51982;51.042;13.806;2023-07-20T06:55:59;21.01;81.28
65378;SHT31;51982;51.042;13.806;2023-07-20T06:58:25;21.06;81.41
65378;SHT31;51982;51.042;13.806;2023-07-20T07:00:51;21.00;81.31
65378;SHT31;51982;51.042;13.806;2023-07-20T07:03:16;21.04;81.49
65378;SHT31;51982;51.042;13.806;2023-07-20T07:05:41;21.06;81.70
65378;SHT31;51982;51.042;13.806;2023-07-20T07:08:07;21.06;81.57
65378;SHT31;51982;51.042;13.806;2023-07-20T07:10:34;20.99;81.45
65378;SHT31;51982;51.042;13.806;2023-07-20T07:12:59;20.86;80.79
65378;SHT31;51982;51.042;13.806;2023-07-20T07:15:26;20.80;80.61
65378;SHT31;51982;51.042;13.806;2023-07-20T07:17:51;20.80;80.69
65378;SHT31;51982;51.042;13.806;2023-07-20T07:20:17;20.77;80.39
65378;SHT31;51982;51.042;13.806;2023-07-20T07:22:42;20.80;80.40
65378;SHT31;51982;51.042;13.806;2023-07-20T07:25:09;20.72;80.39
65378;SHT31;51982;51.042;13.806;2023-07-20T07:27:34;20.82;80.74
65378;SHT31;51982;51.042;13.806;2023-07-20T07:30:00;20.90;80.78
65378;SHT31;51982;51.042;13.806;2023-07-20T07:32:25;21.01;81.14
65378;SHT31;51982;51.042;13.806;2023-07-20T07:34:50;21.13;80.89
65378;SHT31;51982;51.042;13.806;2023-07-20T07:37:15;21.23;80.84
65378;SHT31;51982;51.042;13.806;2023-07-20T07:39:42;21.35;80.75
65378;SHT31;51982;51.042;13.806;2023-07-20T07:42:07;21.45;80.85
65378;SHT31;51982;51.042;13.806;2023-07-20T07:44:32;21.54;80.31
65378;SHT31;51982;51.042;13.806;2023-07-20T07:46:58;21.62;80.38
65378;SHT31;51982;51.042;13.806;2023-07-20T07:49:23;21.66;80.54
65378;SHT31;51982;51.042;13.806;2023-07-20T07:51:48;21.72;80.58
65378;SHT31;51982;51.042;13.806;2023-07-20T07:54:13;21.78;79.81
65378;SHT31;51982;51.042;13.806;2023-07-20T07:56:39;21.81;79.65
65378;SHT31;51982;51.042;13.806;2023-07-20T07:59:04;21.84;79.81
65378;SHT31;51982;51.042;13.806;2023-07-20T08:01:29;21.85;79.94
65378;SHT31;51982;51.042;13.806;2023-07-20T08:03:55;21.85;78.75
65378;SHT31;51982;51.042;13.806;2023-07-20T08:06:21;21.94;78.75
65378;SHT31;51982;51.042;13.806;2023-07-20T08:08:46;21.94;77.78
65378;SHT31;51982;51.042;13.806;2023-07-20T08:11:11;21.79;77.14
65378;SHT31;51982;51.042;13.806;2023-07-20T08:13:36;21.88;77.37
65378;SHT31;51982;51.042;13.806;2023-07-20T08:16:02;21.95;77.73
65378;SHT31;51982;51.042;13.806;2023-07-20T08:18:30;21.98;77.44
65378;SHT31;51982;51.042;13.806;2023-07-20T08:20:56;21.79;76.90
65378;SHT31;51982;51.042;13.806;2023-07-20T08:23:21;21.88;77.34
65378;SHT31;51982;51.042;13.806;2023-07-20T08:25:46;21.85;77.50
65378;SHT31;51982;51.042;13.806;2023-07-20T08:28:15;21.92;77.67
65378;SHT31;51982;51.042;13.806;2023-07-20T08:30:43;21.98;77.18
65378;SHT31;51982;51.042;13.806;2023-07-20T08:33:09;21.98;77.31
65378;SHT31;51982;51.042;13.806;2023-07-20T08:35:35;21.96;77.29
65378;SHT31;51982;51.042;13.806;2023-07-20T08:38:00;21.94;77.39
65378;SHT31;51982;51.042;13.806;2023-07-20T08:40:26;21.89;77.74
65378;SHT31;51982;51.042;13.806;2023-07-20T08:42:52;21.75;77.10
65378;SHT31;51982;51.042;13.806;2023-07-20T08:45:18;21.61;77.45
65378;SHT31;51982;51.042;13.806;2023-07-20T08:47:45;21.62;77.68
65378;SHT31;51982;51.042;13.806;2023-07-20T08:50:11;21.62;77.87
65378;SHT31;51982;51.042;13.806;2023-07-20T08:52:37;21.65;77.48
65378;SHT31;51982;51.042;13.806;2023-07-20T08:55:02;21.65;77.21
65378;SHT31;51982;51.042;13.806;2023-07-20T08:57:31;21.50;77.38
65378;SHT31;51982;51.042;13.806;2023-07-20T08:59:58;21.64;77.64
65378;SHT31;51982;51.042;13.806;2023-07-20T09:02:25;21.78;76.89
65378;SHT31;51982;51.042;13.806;2023-07-20T09:04:51;21.77;76.13
65378;SHT31;51982;51.042;13.806;2023-07-20T09:07:16;21.79;76.14
65378;SHT31;51982;51.042;13.806;2023-07-20T09:09:42;21.84;75.78
65378;SHT31;51982;51.042;13.806;2023-07-20T09:12:14;21.88;76.15
65378;SHT31;51982;51.042;13.806;2023-07-20T09:14:42;21.82;75.72
65378;SHT31;51982;51.042;13.806;2023-07-20T09:17:12;21.95;75.87
65378;SHT31;51982;51.042;13.806;2023-07-20T09:19:38;22.13;75.81
65378;SHT31;51982;51.042;13.806;2023-07-20T09:22:05;22.28;75.52
65378;SHT31;51982;51.042;13.806;2023-07-20T09:24:31;22.43;74.84
65378;SHT31;51982;51.042;13.806;2023-07-20T09:26:57;22.53;74.63
65378;SHT31;51982;51.042;13.806;2023-07-20T09:29:26;22.61;74.85
65378;SHT31;51982;51.042;13.806;2023-07-20T09:32:02;22.61;73.96
65378;SHT31;51982;51.042;13.806;2023-07-20T09:34:29;22.74;74.05
65378;SHT31;51982;51.042;13.806;2023-07-20T09:36:57;22.80;73.73
65378;SHT31;51982;51.042;13.806;2023-07-20T09:39:22;22.86;73.57
65378;SHT31;51982;51.042;13.806;2023-07-20T09:41:48;22.81;73.06
65378;SHT31;51982;51.042;13.806;2023-07-20T09:44:14;22.83;73.21
65378;SHT31;51982;51.042;13.806;2023-07-20T09:46:47;22.86;73.39
65378;SHT31;51982;51.042;13.806;2023-07-20T09:49:14;22.87;73.35
65378;SHT31;51982;51.042;13.806;2023-07-20T09:51:42;22.76;72.67
65378;SHT31;51982;51.042;13.806;2023-07-20T09:54:09;22.77;72.68
65378;SHT31;51982;51.042;13.806;2023-07-20T09:56:35;22.74;72.59
65378;SHT31;51982;51.042;13.806;2023-07-20T09:59:01;22.64;71.98
65378;SHT31;51982;51.042;13.806;2023-07-20T10:01:26;22.23;71.84
65378;SHT31;51982;51.042;13.806;2023-07-20T10:03:54;22.45;72.22
65378;SHT31;51982;51.042;13.806;2023-07-20T10:06:23;22.53;72.99
65378;SHT31;51982;51.042;13.806;2023-07-20T10:08:52;22.37;73.56
65378;SHT31;51982;51.042;13.806;2023-07-20T10:11:18;21.17;84.69
65378;SHT31;51982;51.042;13.806;2023-07-20T10:13:47;20.49;86.25
65378;SHT31;51982;51.042;13.806;2023-07-20T10:16:29;19.87;86.27
65378;SHT31;51982;51.042;13.806;2023-07-20T10:19:05;19.81;84.22
65378;SHT31;51982;51.042;13.806;2023-07-20T10:21:34;19.67;84.33
65378;SHT31;51982;51.042;13.806;2023-07-20T10:24:01;19.77;85.90
65378;SHT31;51982;51.042;13.806;2023-07-20T10:26:26;19.97;86.34
65378;SHT31;51982;51.042;13.806;2023-07-20T10:28:52;20.07;85.45
65378;SHT31;51982;51.042;13.806;2023-07-20T10:31:18;20.22;86.13
65378;SHT31;51982;51.042;13.806;2023-07-20T10:33:43;20.38;86.02
65378;SHT31;51982;51.042;13.806;2023-07-20T10:36:10;20.50;85.81
65378;SHT31;51982;51.042;13.806;2023-07-20T10:41:21;20.53;84.70
65378;SHT31;51982;51.042;13.806;2023-07-20T10:43:49;20.50;84.97
65378;SHT31;51982;51.042;13.806;2023-07-20T10:46:42;20.52;84.77
65378;SHT31;51982;51.042;13.806;2023-07-20T10:49:10;20.57;84.93
65378;SHT31;51982;51.042;13.806;2023-07-20T10:54:52;20.79;85.23
65378;SHT31;51982;51.042;13.806;2023-07-20T10:56:55;20.83;85.17
65378;SHT31;51982;51.042;13.806;2023-07-20T11:01:50;20.84;84.02
65378;SHT31;51982;51.042;13.806;2023-07-20T11:04:40;20.75;83.59
65378;SHT31;51982;51.042;13.806;2023-07-20T11:07:06;20.80;83.95
65378;SHT31;51982;51.042;13.806;2023-07-20T11:09:35;20.92;84.48
65378;SHT31;51982;51.042;13.806;2023-07-20T11:12:14;20.89;84.42
65378;SHT31;51982;51.042;13.806;2023-07-20T11:14:53;20.77;83.56
65378;SHT31;51982;51.042;13.806;2023-07-20T11:17:19;20.86;84.25
65378;SHT31;51982;51.042;13.806;2023-07-20T11:19:55;20.89;84.05
65378;SHT31;51982;51.042;13.806;2023-07-20T11:22:21;20.79;83.02
65378;SHT31;51982;51.042;13.806;2023-07-20T11:24:46;20.76;82.88
65378;SHT31;51982;51.042;13.806;2023-07-20T11:27:13;20.87;83.80
65378;SHT31;51982;51.042;13.806;2023-07-20T11:29:38;21.00;84.41
65378;SHT31;51982;51.042;13.806;2023-07-20T11:32:04;21.07;83.76
65378;SHT31;51982;51.042;13.806;2023-07-20T11:34:30;21.04;82.67
65378;SHT31;51982;51.042;13.806;2023-07-20T11:36:56;20.82;82.22
65378;SHT31;51982;51.042;13.806;2023-07-20T11:39:22;20.99;83.41
65378;SHT31;51982;51.042;13.806;2023-07-20T11:41:50;21.06;84.02
65378;SHT31;51982;51.042;13.806;2023-07-20T11:44:17;21.03;82.89
65378;SHT31;51982;51.042;13.806;2023-07-20T11:46:43;21.10;83.49
65378;SHT31;51982;51.042;13.806;2023-07-20T11:49:10;21.10;82.92
65378;SHT31;51982;51.042;13.806;2023-07-20T11:51:35;21.14;83.52
65378;SHT31;51982;51.042;13.806;2023-07-20T11:54:03;21.20;83.88
65378;SHT31;51982;51.042;13.806;2023-07-20T11:56:29;21.21;83.18
65378;SHT31;51982;51.042;13.806;2023-07-20T11:58:55;21.26;82.65
65378;SHT31;51982;51.042;13.806;2023-07-20T12:01:23;21.38;83.12
65378;SHT31;51982;51.042;13.806;2023-07-20T12:03:48;21.50;83.16
65378;SHT31;51982;51.042;13.806;2023-07-20T12:06:15;21.54;82.59
65378;SHT31;51982;51.042;13.806;2023-07-20T12:08:44;21.54;83.37
65378;SHT31;51982;51.042;13.806;2023-07-20T12:11:10;21.59;82.44
65378;SHT31;51982;51.042;13.806;2023-07-20T12:13:42;21.64;82.92
65378;SHT31;51982;51.042;13.806;2023-07-20T12:16:16;21.59;83.04
65378;SHT31;51982;51.042;13.806;2023-07-20T12:18:42;21.43;81.00
65378;SHT31;51982;51.042;13.806;2023-07-20T12:21:09;21.57;82.01
65378;SHT31;51982;51.042;13.806;2023-07-20T12:23:37;21.54;82.59
65378;SHT31;51982;51.042;13.806;2023-07-20T12:26:02;21.48;82.09
65378;SHT31;51982;51.042;13.806;2023-07-20T12:28:30;21.50;82.55
65378;SHT31;51982;51.042;13.806;2023-07-20T12:30:56;21.38;82.48
65378;SHT31;51982;51.042;13.806;2023-07-20T12:33:22;21.37;82.64
65378;SHT31;51982;51.042;13.806;2023-07-20T12:35:48;21.28;82.04
65378;SHT31;51982;51.042;13.806;2023-07-20T12:38:14;21.30;82.94
65378;SHT31;51982;51.042;13.806;2023-07-20T12:40:39;21.31;82.67
65378;SHT31;51982;51.042;13.806;2023-07-20T12:43:05;21.38;83.12
65378;SHT31;51982;51.042;13.806;2023-07-20T12:45:31;21.40;82.94
65378;SHT31;51982;51.042;13.806;2023-07-20T12:47:57;21.47;82.98
65378;SHT31;51982;51.042;13.806;2023-07-20T12:50:22;21.40;82.85
65378;SHT31;51982;51.042;13.806;2023-07-20T12:52:47;21.34;82.03
65378;SHT31;51982;51.042;13.806;2023-07-20T12:55:12;21.23;81.97
65378;SHT31;51982;51.042;13.806;2023-07-20T12:57:38;21.26;82.03
65378;SHT31;51982;51.042;13.806;2023-07-20T13:00:05;21.26;82.28
65378;SHT31;51982;51.042;13.806;2023-07-20T13:02:32;21.37;82.52
65378;SHT31;51982;51.042;13.806;2023-07-20T13:04:57;21.45;82.62
65378;SHT31;51982;51.042;13.806;2023-07-20T13:07:34;21.43;82.84
65378;SHT31;51982;51.042;13.806;2023-07-20T13:10:00;21.51;81.87
65378;SHT31;51982;51.042;13.806;2023-07-20T13:12:30;21.50;82.83
65378;SHT31;51982;51.042;13.806;2023-07-20T13:14:56;21.55;81.82
65378;SHT31;51982;51.042;13.806;2023-07-20T13:17:24;21.61;82.00
65378;SHT31;51982;51.042;13.806;2023-07-20T13:19:50;21.65;81.85
65378;SHT31;51982;51.042;13.806;2023-07-20T13:22:15;21.66;81.69
65378;SHT31;51982;51.042;13.806;2023-07-20T13:24:41;21.68;81.64
65378;SHT31;51982;51.042;13.806;2023-07-20T13:27:06;21.72;81.44
65378;SHT31;51982;51.042;13.806;2023-07-20T13:29:32;21.71;81.61
65378;SHT31;51982;51.042;13.806;2023-07-20T13:31:58;21.78;81.44
65378;SHT31;51982;51.042;13.806;2023-07-20T13:34:23;21.82;81.30
65378;SHT31;51982;51.042;13.806;2023-07-20T13:36:49;21.85;81.71
65378;SHT31;51982;51.042;13.806;2023-07-20T13:39:14;21.71;80.14
65378;SHT31;51982;51.042;13.806;2023-07-20T13:41:39;21.75;80.75
65378;SHT31;51982;51.042;13.806;2023-07-20T13:44:05;21.78;80.92
65378;SHT31;51982;51.042;13.806;2023-07-20T13:46:30;21.86;81.03
65378;SHT31;51982;51.042;13.806;2023-07-20T13:48:55;21.94;81.04
65378;SHT31;51982;51.042;13.806;2023-07-20T13:51:20;21.96;80.85
65378;SHT31;51982;51.042;13.806;2023-07-20T13:53:47;21.96;80.97
65378;SHT31;51982;51.042;13.806;2023-07-20T13:56:13;22.02;80.51
65378;SHT31;51982;51.042;13.806;2023-07-20T13:58:38;21.95;80.00
65378;SHT31;51982;51.042;13.806;2023-07-20T14:01:03;21.96;79.66
65378;SHT31;51982;51.042;13.806;2023-07-20T14:03:28;22.02;80.02
65378;SHT31;51982;51.042;13.806;2023-07-20T14:05:54;22.09;80.29
65378;SHT31;51982;51.042;13.806;2023-07-20T14:08:19;22.13;80.23
65378;SHT31;51982;51.042;13.806;2023-07-20T14:10:44;22.26;80.63
65378;SHT31;51982;51.042;13.806;2023-07-20T14:13:09;22.26;80.03
65378;SHT31;51982;51.042;13.806;2023-07-20T14:15:35;22.20;79.16
65378;SHT31;51982;51.042;13.806;2023-07-20T14:18:00;22.26;79.57
65378;SHT31;51982;51.042;13.806;2023-07-20T14:20:25;22.25;78.84
65378;SHT31;51982;51.042;13.806;2023-07-20T14:22:54;22.25;79.80
65378;SHT31;51982;51.042;13.806;2023-07-20T14:25:19;22.30;78.53
65378;SHT31;51982;51.042;13.806;2023-07-20T14:27:44;22.32;78.77
65378;SHT31;51982;51.042;13.806;2023-07-20T14:30:10;22.32;78.43
65378;SHT31;51982;51.042;13.806;2023-07-20T14:32:35;22.37;78.65
65378;SHT31;51982;51.042;13.806;2023-07-20T14:35:00;22.33;78.14
65378;SHT31;51982;51.042;13.806;2023-07-20T14:37:26;22.37;78.59
65378;SHT31;51982;51.042;13.806;2023-07-20T14:39:51;22.45;78.57
65378;SHT31;51982;51.042;13.806;2023-07-20T14:42:16;22.52;78.57
65378;SHT31;51982;51.042;13.806;2023-07-20T14:44:43;22.55;78.45
65378;SHT31;51982;51.042;13.806;2023-07-20T14:47:08;22.61;78.52
65378;SHT31;51982;51.042;13.806;2023-07-20T14:49:33;22.56;77.83
65378;SHT31;51982;51.042;13.806;2023-07-20T14:51:58;22.60;77.90
65378;SHT31;51982;51.042;13.806;2023-07-20T14:54:24;22.57;78.06
65378;SHT31;51982;51.042;13.806;2023-07-20T14:56:50;22.64;78.26
65378;SHT31;51982;51.042;13.806;2023-07-20T14:59:18;22.61;78.15
65378;SHT31;51982;51.042;13.806;2023-07-20T15:01:43;22.55;77.64
65378;SHT31;51982;51.042;13.806;2023-07-20T15:04:11;22.50;77.97
65378;SHT31;51982;51.042;13.806;2023-07-20T15:06:36;22.46;77.88
65378;SHT31;51982;51.042;13.806;2023-07-20T15:09:02;22.32;77.21
65378;SHT31;51982;51.042;13.806;2023-07-20T15:11:29;22.33;77.85
65378;SHT31;51982;51.042;13.806;2023-07-20T15:13:54;22.37;77.99
65378;SHT31;51982;51.042;13.806;2023-07-20T15:16:19;22.43;78.23
65378;SHT31;51982;51.042;13.806;2023-07-20T15:18:45;22.42;78.16
65378;SHT31;51982;51.042;13.806;2023-07-20T15:21:10;22.32;77.35
65378;SHT31;51982;51.042;13.806;2023-07-20T15:23:36;22.32;77.48
65378;SHT31;51982;51.042;13.806;2023-07-20T15:26:01;22.19;76.89
65378;SHT31;51982;51.042;13.806;2023-07-20T15:28:26;22.13;76.34